createdAt,value
2022-08-09T00:00:30.191Z,3.50
2022-08-09T00:02:57.891Z,3.60
2022-08-09T00:06:17.349Z,3.80
2022-08-09T00:08:31.899Z,3.70
2022-08-09T00:11:06.030Z,3.60
2022-08-09T00:13:52.662Z,3.90
2022-08-09T00:16:26.313Z,3.50
2022-08-09T00:19:09.380Z,3.80
2022-08-09T00:21:56.247Z,3.70
2022-08-09T00:24:29.224Z,3.80
2022-08-09T00:26:59.741Z,3.20
2022-08-09T00:30:16.520Z,3.70
2022-08-09T00:32:26.609Z,3.60
2022-08-09T00:34:55.936Z,3.80
2022-08-09T00:37:23.988Z,3.60
2022-08-09T00:40:09.818Z,3.80
2022-08-09T00:44:10.531Z,3.30
2022-08-09T00:45:29.060Z,3.60
2022-08-09T00:47:57.034Z,4.00
2022-08-09T00:50:25.489Z,3.60
2022-08-09T00:52:55.502Z,3.60
2022-08-09T00:56:03.305Z,3.80
2022-08-09T00:58:14.843Z,3.60
2022-08-09T01:00:55.939Z,3.50
2022-08-09T01:03:40.663Z,3.40
2022-08-09T01:06:21.703Z,3.40
2022-08-09T01:09:02.641Z,3.00
2022-08-09T01:11:53.105Z,3.90
2022-08-09T01:14:30.125Z,3.80
2022-08-09T01:17:08.986Z,3.80
2022-08-09T01:19:57.158Z,3.70
2022-08-09T01:23:02.731Z,3.50
2022-08-09T01:25:51.602Z,3.40
2022-08-09T01:28:23.010Z,3.80
2022-08-09T01:31:00.334Z,3.60
2022-08-09T01:33:34.852Z,3.80
2022-08-09T01:36:07.077Z,3.70
2022-08-09T01:38:38.579Z,3.80
2022-08-09T01:41:14.227Z,3.80
2022-08-09T01:43:51.718Z,3.90
2022-08-09T01:46:25.295Z,3.70
2022-08-09T01:48:59.907Z,4.00
2022-08-09T01:51:53.169Z,3.60
2022-08-09T01:54:27.547Z,3.70
2022-08-09T01:57:00.146Z,3.80
2022-08-09T01:59:33.828Z,3.80
2022-08-09T02:02:20.829Z,3.80
2022-08-09T02:04:51.389Z,4.10
2022-08-09T02:08:35.699Z,3.90
2022-08-09T02:10:17.426Z,3.80
2022-08-09T02:12:47.174Z,4.50
2022-08-09T02:15:19.216Z,3.70
2022-08-09T02:18:09.533Z,3.80
2022-08-09T02:20:41.805Z,3.60
2022-08-09T02:23:14.524Z,3.80
2022-08-09T02:25:49.622Z,4.00
2022-08-09T02:28:24.927Z,3.90
2022-08-09T02:31:02.112Z,3.80
2022-08-09T02:33:37.849Z,3.80
2022-08-09T02:36:10.766Z,3.70
2022-08-09T02:38:47.728Z,3.60
2022-08-09T02:41:23.218Z,3.80
2022-08-09T02:43:55.453Z,3.70
2022-08-09T02:46:27.822Z,3.60
2022-08-09T02:49:02.857Z,4.10
2022-08-09T02:51:37.065Z,3.90
2022-08-09T02:54:13.739Z,4.00
2022-08-09T02:56:51.264Z,3.80
2022-08-09T02:59:26.558Z,4.00
2022-08-09T03:02:09.775Z,4.40
2022-08-09T03:04:41.741Z,3.60
2022-08-09T03:07:13.961Z,3.80
2022-08-09T03:09:56.232Z,4.40
2022-08-09T03:12:27.313Z,3.70
2022-08-09T03:14:56.217Z,4.00
2022-08-09T03:17:26.532Z,3.70
2022-08-09T03:20:03.059Z,3.80
2022-08-09T03:22:41.989Z,3.80
2022-08-09T03:25:26.200Z,4.30
2022-08-09T03:28:03.460Z,3.80
2022-08-09T03:30:34.493Z,4.00
2022-08-09T03:33:17.881Z,3.80
2022-08-09T03:36:12.343Z,3.60
2022-08-09T03:38:42.145Z,3.80
2022-08-09T03:41:15.604Z,3.80
2022-08-09T03:44:04.055Z,4.00
2022-08-09T03:46:34.913Z,4.40
2022-08-09T03:49:08.757Z,4.00
2022-08-09T03:51:57.325Z,4.20
2022-08-09T03:54:32.017Z,3.80
2022-08-09T03:57:18.163Z,4.10
2022-08-09T03:59:54.783Z,3.90
2022-08-09T04:02:27.002Z,4.50
2022-08-09T04:05:00.752Z,4.00
2022-08-09T04:07:47.708Z,4.00
2022-08-09T04:10:21.935Z,3.90
2022-08-09T04:13:01.246Z,3.90
2022-08-09T04:15:52.207Z,3.90
2022-08-09T04:18:21.520Z,4.40
2022-08-09T04:20:52.728Z,4.40
2022-08-09T04:23:24.522Z,4.20
2022-08-09T04:25:54.491Z,4.40
2022-08-09T04:28:34.264Z,4.10
2022-08-09T04:31:05.932Z,4.20
2022-08-09T04:33:47.645Z,4.30
2022-08-09T04:36:25.054Z,4.20
2022-08-09T04:38:53.962Z,3.90
2022-08-09T04:41:23.862Z,4.60
2022-08-09T04:44:04.974Z,4.00
2022-08-09T04:46:37.967Z,4.00
2022-08-09T04:49:40.851Z,4.20
2022-08-09T04:52:12.458Z,4.00
2022-08-09T04:54:50.914Z,4.40
2022-08-09T04:57:21.429Z,3.90
2022-08-09T04:59:53.772Z,4.10
2022-08-09T05:02:22.138Z,3.70
2022-08-09T05:04:55.294Z,4.00
2022-08-09T05:07:24.737Z,3.80
2022-08-09T05:09:55.637Z,4.40
2022-08-09T05:12:23.931Z,3.90
2022-08-09T05:14:51.847Z,4.40
2022-08-09T05:18:50.374Z,4.30
2022-08-09T05:20:09.786Z,4.60
2022-08-09T05:23:54.966Z,4.30
2022-08-09T05:25:28.329Z,3.90
2022-08-09T05:28:01.577Z,4.10
2022-08-09T05:30:29.921Z,4.30
2022-08-09T05:33:00.073Z,4.20
2022-08-09T05:35:29.795Z,4.00
2022-08-09T05:37:59.755Z,4.80
2022-08-09T05:40:28.035Z,4.10
2022-08-09T05:42:56.358Z,4.00
2022-08-09T05:45:24.777Z,4.30
2022-08-09T05:47:55.022Z,4.10
2022-08-09T05:50:43.972Z,4.30
2022-08-09T05:53:31.761Z,3.80
2022-08-09T05:56:01.960Z,4.30
2022-08-09T05:58:29.615Z,4.30
2022-08-09T06:00:58.214Z,4.00
2022-08-09T06:03:34.924Z,4.40
2022-08-09T06:06:15.661Z,3.80
2022-08-09T06:08:43.768Z,4.60
2022-08-09T06:11:20.435Z,4.40
2022-08-09T06:14:08.334Z,4.00
2022-08-09T06:16:36.681Z,4.50
2022-08-09T06:19:05.197Z,4.60
2022-08-09T06:21:34.421Z,4.80
2022-08-09T06:24:08.247Z,5.00
2022-08-09T06:26:41.338Z,5.40
2022-08-09T06:29:14.922Z,4.60
2022-08-09T06:32:08.406Z,4.60
2022-08-09T06:34:30.886Z,4.40
2022-08-09T06:36:59.817Z,4.50
2022-08-09T06:39:49.069Z,4.30
2022-08-09T06:42:19.975Z,4.40
2022-08-09T06:44:51.783Z,4.40
2022-08-09T06:47:22.459Z,4.60
2022-08-09T06:50:13.478Z,4.30
2022-08-09T06:52:45.153Z,4.40
2022-08-09T06:55:15.937Z,4.40
2022-08-09T06:58:03.623Z,4.40
2022-08-09T07:00:50.244Z,4.70
2022-08-09T07:03:26.969Z,4.20
2022-08-09T07:06:03.678Z,4.00
2022-08-09T07:08:34.332Z,4.30
2022-08-09T07:11:03.702Z,4.10
2022-08-09T07:13:31.585Z,5.30
2022-08-09T07:16:42.973Z,4.50
2022-08-09T07:19:07.782Z,5.00
2022-08-09T07:21:36.652Z,5.10
2022-08-09T07:24:11.383Z,4.80
2022-08-09T07:26:41.753Z,4.30
2022-08-09T07:29:13.281Z,4.70
2022-08-09T07:31:45.566Z,4.60
2022-08-09T07:34:20.227Z,4.30
2022-08-09T07:36:49.355Z,5.50
2022-08-09T07:39:20.339Z,4.50
2022-08-09T07:42:06.473Z,4.20
2022-08-09T07:44:51.889Z,4.90
2022-08-09T07:47:21.583Z,4.80
2022-08-09T07:50:04.572Z,4.60
2022-08-09T07:52:35.766Z,5.00
2022-08-09T07:55:08.769Z,4.30
2022-08-09T07:57:47.153Z,4.90
2022-08-09T08:00:20.613Z,4.80
2022-08-09T08:03:04.657Z,4.70
2022-08-09T08:05:53.579Z,4.90
2022-08-09T08:09:01.603Z,4.40
2022-08-09T08:12:08.803Z,5.00
2022-08-09T08:13:59.597Z,4.20
2022-08-09T08:16:31.697Z,5.00
2022-08-09T08:19:02.928Z,4.60
2022-08-09T08:21:32.209Z,4.80
2022-08-09T08:24:00.899Z,4.50
2022-08-09T08:26:55.135Z,4.50
2022-08-09T08:29:20.200Z,4.50
2022-08-09T08:32:03.336Z,4.60
2022-08-09T08:34:34.356Z,4.40
2022-08-09T08:37:03.328Z,4.60
2022-08-09T08:39:39.212Z,4.30
2022-08-09T08:42:13.526Z,4.30
2022-08-09T08:44:42.667Z,4.20
2022-08-09T08:47:14.433Z,3.90
2022-08-09T08:49:48.055Z,4.20
2022-08-09T08:55:08.504Z,4.50
2022-08-09T08:57:37.460Z,3.80
2022-08-09T09:00:17.263Z,4.40
2022-08-09T09:03:04.429Z,4.50
2022-08-09T09:05:59.838Z,5.60
2022-08-09T09:08:40.273Z,4.60
2022-08-09T09:11:17.171Z,3.70
2022-08-09T09:13:56.418Z,4.00
2022-08-09T09:16:30.740Z,3.90
2022-08-09T09:22:07.395Z,3.70
2022-08-09T09:24:39.905Z,3.70
2022-08-09T09:28:03.826Z,3.90
2022-08-09T09:30:27.413Z,3.80
2022-08-09T09:33:16.571Z,3.70
2022-08-09T09:36:01.401Z,4.20
2022-08-09T09:38:46.294Z,3.80
2022-08-09T09:41:32.921Z,4.00
2022-08-09T09:44:11.548Z,3.70
2022-08-09T09:46:46.115Z,3.70
2022-08-09T09:49:31.841Z,4.20
2022-08-09T09:52:16.703Z,4.00
2022-08-09T09:55:16.746Z,3.90
2022-08-09T09:58:00.640Z,3.90
2022-08-09T10:00:32.266Z,4.20
2022-08-09T10:03:09.049Z,3.60
2022-08-09T10:06:00.858Z,3.90
2022-08-09T10:08:32.317Z,3.60
2022-08-09T10:12:01.444Z,3.60
2022-08-09T10:14:30.781Z,3.70
2022-08-09T10:17:39.763Z,4.60
2022-08-09T10:19:58.872Z,4.30
2022-08-09T10:22:33.052Z,3.90
2022-08-09T10:25:11.019Z,4.00
2022-08-09T10:27:56.114Z,3.60
2022-08-09T10:33:29.661Z,4.10
2022-08-09T10:36:09.586Z,4.10
2022-08-09T10:38:56.224Z,3.60
2022-08-09T10:41:28.330Z,3.60
2022-08-09T10:43:59.296Z,3.40
2022-08-09T10:46:57.496Z,3.50
2022-08-09T10:49:51.879Z,3.60
2022-08-09T10:52:45.175Z,3.50
2022-08-09T10:55:24.848Z,3.80
2022-08-09T10:57:55.699Z,4.00
2022-08-09T11:01:10.890Z,3.80
2022-08-09T11:03:51.193Z,3.60
2022-08-09T11:06:24.508Z,3.50
2022-08-09T11:08:53.476Z,3.70
2022-08-09T11:11:22.975Z,3.60
2022-08-09T11:14:31.773Z,3.90
2022-08-09T11:17:00.414Z,3.80
2022-08-09T11:20:11.182Z,3.90
2022-08-09T11:23:02.947Z,3.80
2022-08-09T11:25:47.154Z,3.80
2022-08-09T11:28:56.498Z,3.90
2022-08-09T11:31:49.201Z,3.80
2022-08-09T11:34:27.792Z,4.10
2022-08-09T11:36:59.067Z,4.10
2022-08-09T11:39:38.016Z,3.60
2022-08-09T11:42:14.922Z,3.60
2022-08-09T11:44:47.628Z,4.00
2022-08-09T11:47:16.088Z,4.00
2022-08-09T11:50:55.586Z,3.80
2022-08-09T11:53:57.701Z,3.90
2022-08-09T11:56:42.325Z,3.60
2022-08-09T11:59:30.291Z,3.90
2022-08-09T12:02:18.409Z,3.30
2022-08-09T12:04:58.201Z,3.80
2022-08-09T12:07:41.405Z,3.80
2022-08-09T12:10:31.783Z,3.80
2022-08-09T12:13:00.029Z,3.40
2022-08-09T12:15:48.847Z,4.10
2022-08-09T12:18:29.663Z,3.40
2022-08-09T12:21:00.613Z,3.50
2022-08-09T12:23:56.694Z,3.40
2022-08-09T12:26:26.377Z,3.70
2022-08-09T12:29:11.659Z,3.50
2022-08-09T12:31:58.933Z,3.80
2022-08-09T12:34:35.234Z,3.60
2022-08-09T12:37:21.489Z,3.70
2022-08-09T12:40:08.284Z,3.40
2022-08-09T12:42:37.254Z,3.50
2022-08-09T12:45:33.889Z,3.20
2022-08-09T12:47:55.261Z,3.90
2022-08-09T12:50:25.298Z,3.60
2022-08-09T12:53:17.763Z,3.40
2022-08-09T12:56:16.287Z,3.70
2022-08-09T12:58:28.969Z,3.60
2022-08-09T13:00:57.649Z,3.40
2022-08-09T13:03:57.054Z,3.40
2022-08-09T13:06:34.772Z,3.70
2022-08-09T13:09:09.521Z,3.40
2022-08-09T13:11:42.551Z,3.30
2022-08-09T13:14:41.637Z,3.40
2022-08-09T13:17:16.136Z,3.60
2022-08-09T13:20:09.798Z,3.40
2022-08-09T13:23:01.624Z,3.80
2022-08-09T13:25:25.616Z,4.00
2022-08-09T13:28:02.269Z,3.70
2022-08-09T13:30:50.177Z,3.70
2022-08-09T13:33:52.173Z,3.90
2022-08-09T13:36:24.502Z,3.20
2022-08-09T13:39:30.964Z,3.40
2022-08-09T13:41:59.395Z,3.50
2022-08-09T13:44:31.121Z,3.60
2022-08-09T13:49:57.532Z,4.00
2022-08-09T13:52:29.991Z,3.40
2022-08-09T13:55:00.918Z,3.50
2022-08-09T13:57:40.528Z,3.50
2022-08-09T14:00:15.700Z,3.50
2022-08-09T14:03:04.498Z,3.40
2022-08-09T14:05:57.355Z,3.90
2022-08-09T14:08:22.344Z,3.60
2022-08-09T14:10:52.870Z,3.60
2022-08-09T14:14:14.991Z,3.60
2022-08-09T14:18:45.884Z,3.60
2022-08-09T14:21:20.080Z,3.60
2022-08-09T14:23:55.546Z,3.40
2022-08-09T14:26:31.854Z,3.70
2022-08-09T14:29:03.309Z,3.80
2022-08-09T14:31:49.835Z,3.60
2022-08-09T14:34:32.293Z,3.50
2022-08-09T14:37:02.752Z,3.70
2022-08-09T14:39:46.396Z,3.40
2022-08-09T14:42:30.530Z,3.70
2022-08-09T14:46:39.536Z,3.80
2022-08-09T14:47:58.869Z,3.70
2022-08-09T14:50:30.694Z,3.90
2022-08-09T14:52:59.449Z,3.70
2022-08-09T14:55:32.069Z,3.80
2022-08-09T14:58:03.071Z,3.50
2022-08-09T15:00:31.837Z,3.90
2022-08-09T15:03:00.216Z,3.60
2022-08-09T15:05:29.590Z,3.80
2022-08-09T15:07:58.357Z,3.40
2022-08-09T15:10:27.247Z,3.00
2022-08-09T15:12:56.174Z,3.40
2022-08-09T15:15:28.401Z,3.60
2022-08-09T15:17:56.593Z,3.50
2022-08-09T15:22:01.190Z,3.40
2022-08-09T15:24:01.002Z,3.30
2022-08-09T15:26:04.924Z,3.60
2022-08-09T15:28:37.010Z,3.60
2022-08-09T15:31:17.474Z,3.80
2022-08-09T15:34:31.139Z,3.80
2022-08-09T15:36:34.771Z,3.40
2022-08-09T15:39:03.003Z,4.00
2022-08-09T15:41:32.728Z,3.70
2022-08-09T15:44:02.338Z,3.80
2022-08-09T15:46:33.350Z,3.70
2022-08-09T15:49:23.051Z,3.50
2022-08-09T15:52:02.809Z,3.60
2022-08-09T15:54:48.365Z,3.80
2022-08-09T15:57:18.995Z,3.90
2022-08-09T16:00:03.869Z,3.30
2022-08-09T16:04:59.529Z,3.60
2022-08-09T16:07:39.268Z,3.80
2022-08-09T16:10:11.131Z,3.50
2022-08-09T16:12:50.175Z,3.80
2022-08-09T16:16:10.077Z,3.50
2022-08-09T16:18:08.672Z,3.50
2022-08-09T16:20:38.256Z,3.30
2022-08-09T16:23:11.267Z,3.80
2022-08-09T16:25:40.598Z,4.00
2022-08-09T16:28:12.116Z,3.70
2022-08-09T16:30:44.788Z,3.40
2022-08-09T16:33:26.618Z,3.70
2022-08-09T16:35:58.304Z,3.80
2022-08-09T16:38:29.628Z,4.10
2022-08-09T16:40:57.871Z,3.90
2022-08-09T16:43:26.703Z,4.00
2022-08-09T16:45:56.075Z,3.90
2022-08-09T16:48:43.055Z,4.30
2022-08-09T16:51:14.229Z,4.30
2022-08-09T16:54:09.008Z,3.60
2022-08-09T16:56:31.206Z,3.70
2022-08-09T16:58:59.293Z,4.10
2022-08-09T17:01:33.707Z,3.60
2022-08-09T17:04:02.453Z,3.80
2022-08-09T17:06:33.531Z,4.20
2022-08-09T17:09:44.038Z,3.90
2022-08-09T17:11:52.813Z,3.90
2022-08-09T17:14:27.305Z,4.90
2022-08-09T17:17:00.189Z,4.10
2022-08-09T17:20:05.030Z,3.90
2022-08-09T17:22:25.086Z,4.40
2022-08-09T17:25:03.425Z,3.90
2022-08-09T17:27:33.098Z,4.00
2022-08-09T17:30:06.530Z,3.60
2022-08-09T17:32:38.206Z,3.70
2022-08-09T17:35:12.369Z,3.80
2022-08-09T17:38:13.026Z,3.90
2022-08-09T17:40:31.958Z,3.70
2022-08-09T17:43:10.911Z,4.00
2022-08-09T17:46:03.800Z,4.00
2022-08-09T17:48:32.827Z,3.70
2022-08-09T17:51:09.822Z,4.10
2022-08-09T17:53:53.042Z,3.70
2022-08-09T17:56:27.703Z,4.30
2022-08-09T17:58:58.028Z,4.30
2022-08-09T18:01:25.965Z,4.60
2022-08-09T18:04:13.861Z,4.30
2022-08-09T18:06:49.756Z,3.90
2022-08-09T18:09:24.800Z,3.90
2022-08-09T18:12:15.193Z,3.80
2022-08-09T18:14:49.508Z,3.70
2022-08-09T18:17:18.602Z,4.00
2022-08-09T18:20:57.099Z,3.80
2022-08-09T18:22:34.821Z,4.00
2022-08-09T18:25:07.318Z,4.40
2022-08-09T18:28:02.126Z,4.20
2022-08-09T18:30:42.018Z,4.60
2022-08-09T18:33:12.794Z,4.30
2022-08-09T18:35:58.618Z,4.40
2022-08-09T18:38:27.914Z,4.20
2022-08-09T18:40:55.847Z,4.10
2022-08-09T18:43:25.737Z,4.50
2022-08-09T18:46:46.856Z,4.10
2022-08-09T18:48:43.373Z,4.60
2022-08-09T18:51:11.238Z,4.10
2022-08-09T18:53:56.318Z,4.10
2022-08-09T18:56:28.125Z,4.20
2022-08-09T18:58:56.985Z,4.90
2022-08-09T19:01:26.039Z,4.00
2022-08-09T19:04:06.407Z,4.30
2022-08-09T19:06:38.750Z,4.30
2022-08-09T19:09:08.374Z,4.40
2022-08-09T19:11:43.916Z,4.50
2022-08-09T19:14:11.802Z,4.40
2022-08-09T19:16:50.269Z,4.90
2022-08-09T19:19:25.529Z,4.60
2022-08-09T19:22:04.248Z,4.90
2022-08-09T19:25:08.879Z,4.60
2022-08-09T19:27:23.404Z,5.10
2022-08-09T19:30:23.772Z,5.00
2022-08-09T19:32:41.565Z,4.80
2022-08-09T19:35:10.205Z,4.70
2022-08-09T19:37:54.454Z,4.70
2022-08-09T19:40:33.241Z,4.60
2022-08-09T19:43:03.656Z,4.70
2022-08-09T19:45:33.382Z,5.40
2022-08-09T19:48:10.676Z,4.80
2022-08-09T19:50:48.986Z,4.80
2022-08-09T19:53:20.863Z,4.50
2022-08-09T19:56:03.502Z,5.10
2022-08-09T19:58:35.024Z,5.20
2022-08-09T20:01:04.091Z,5.10
2022-08-09T20:04:18.114Z,4.70
2022-08-09T20:06:24.267Z,4.60
2022-08-09T20:08:59.475Z,4.40
2022-08-09T20:11:33.744Z,4.50
2022-08-09T20:14:12.498Z,4.40
2022-08-09T20:16:50.194Z,4.40
2022-08-09T20:19:47.407Z,4.50
2022-08-09T20:22:14.313Z,4.60
2022-08-09T20:24:53.868Z,5.00
2022-08-09T20:27:22.505Z,4.90
2022-08-09T20:29:50.393Z,4.90
2022-08-09T20:32:29.908Z,4.60
2022-08-09T20:34:59.704Z,4.80
2022-08-09T20:37:37.955Z,4.80
2022-08-09T20:40:24.669Z,4.50
2022-08-09T20:43:00.298Z,5.00
2022-08-09T20:46:01.923Z,5.40
2022-08-09T20:48:31.123Z,4.60
2022-08-09T20:51:00.185Z,5.20
2022-08-09T20:53:36.281Z,5.00
2022-08-09T20:56:09.155Z,4.80
2022-08-09T20:58:48.981Z,5.20
2022-08-09T21:01:34.196Z,5.00
2022-08-09T21:05:48.298Z,4.60
2022-08-09T21:06:53.123Z,4.90
2022-08-09T21:09:24.948Z,5.20
2022-08-09T21:18:22.818Z,5.20
2022-08-09T21:20:17.644Z,5.20
2022-08-09T21:22:52.738Z,5.20
2022-08-09T21:25:44.420Z,5.10
2022-08-09T21:28:34.393Z,4.80
2022-08-09T21:31:18.146Z,4.90
2022-08-09T21:33:50.469Z,4.80
2022-08-09T21:36:20.998Z,4.60
2022-08-09T21:38:57.481Z,5.50
2022-08-09T21:42:04.390Z,5.20
2022-08-09T21:44:34.672Z,5.00
2022-08-09T21:47:07.502Z,5.00
2022-08-09T21:49:39.160Z,4.90
2022-08-09T21:52:15.010Z,4.70
2022-08-09T21:54:50.664Z,5.20
2022-08-09T21:57:37.762Z,4.80
2022-08-09T22:00:12.367Z,5.00
2022-08-09T22:02:43.329Z,5.00
2022-08-09T22:05:23.210Z,5.30
2022-08-09T22:07:53.356Z,5.20
2022-08-09T22:10:23.994Z,5.30
2022-08-09T22:12:52.358Z,4.90
2022-08-09T22:15:23.467Z,4.80
2022-08-09T22:18:04.251Z,5.30
2022-08-09T22:20:36.429Z,5.20
2022-08-09T22:23:04.971Z,4.90
2022-08-09T22:26:06.058Z,5.30
2022-08-09T22:28:29.604Z,5.40
2022-08-09T22:31:02.150Z,5.30
2022-08-09T22:33:45.541Z,5.10
2022-08-09T22:36:19.259Z,4.80
2022-08-09T22:38:48.106Z,5.90
2022-08-09T22:41:16.232Z,5.10
2022-08-09T22:44:02.362Z,5.30
2022-08-09T22:48:11.134Z,4.70
2022-08-09T22:49:20.513Z,5.00
2022-08-09T22:51:57.455Z,4.90
2022-08-09T22:54:27.126Z,4.80
2022-08-09T22:56:56.993Z,4.90
2022-08-09T22:59:56.072Z,4.20
2022-08-09T23:02:19.926Z,4.90
2022-08-09T23:04:54.081Z,5.10
2022-08-09T23:08:22.665Z,4.30
2022-08-09T23:10:30.580Z,4.50
2022-08-09T23:12:58.892Z,5.00
2022-08-09T23:15:27.582Z,5.00
2022-08-09T23:17:55.472Z,4.80
2022-08-09T23:20:25.400Z,5.00
2022-08-09T23:22:53.180Z,4.40
2022-08-09T23:25:20.983Z,4.40
2022-08-09T23:28:14.239Z,4.60
2022-08-09T23:30:36.400Z,4.70
2022-08-09T23:33:04.261Z,4.30
2022-08-09T23:36:04.807Z,4.60
2022-08-09T23:38:20.766Z,4.40
2022-08-09T23:40:50.647Z,4.40
2022-08-09T23:43:18.849Z,4.20
2022-08-09T23:45:47.446Z,4.60
2022-08-09T23:48:15.183Z,4.40
2022-08-09T23:50:42.912Z,4.60
2022-08-09T23:53:10.643Z,4.10
2022-08-09T23:55:40.214Z,5.00
2022-08-09T23:58:25.766Z,4.60
